TimeEDT,TemperatureF,Dew PointF,Humidity,Sea Level PressureIn,VisibilityMPH,Wind Direction,Wind SpeedMPH,Gust SpeedMPH,PrecipitationIn,Events,Conditions,WindDirDegrees,DateUTC
12:08 AM,48.2,48.2,100,29.85,7.0,SSW,4.6,-,0.00,Rain,Light Rain,210,2013-04-16 04:08:00
12:54 AM,48.0,46.0,93,29.86,9.0,South,5.8,-,0.01,Rain,Light Rain,190,2013-04-16 04:54:00
1:54 AM,48.0,45.0,89,29.88,5.0,WSW,6.9,-,0.06,Rain,Light Rain,240,2013-04-16 05:54:00
2:33 AM,46.4,44.6,93,29.87,10.0,West,4.6,-,0.03,Rain,Light Rain,270,2013-04-16 06:33:00
2:54 AM,45.0,42.1,90,29.86,6.0,WNW,6.9,16.1,0.05,Rain,Light Rain,290,2013-04-16 06:54:00
3:11 AM,44.6,42.8,93,29.87,6.0,SW,4.6,-,0.04,Rain,Light Rain,230,2013-04-16 07:11:00
3:20 AM,44.6,42.8,93,29.89,8.0,WSW,5.8,-,0.04,Rain,Light Rain,250,2013-04-16 07:20:00
3:37 AM,42.8,37.4,81,29.89,7.0,NW,10.4,17.3,0.07,Rain,Rain,310,2013-04-16 07:37:00
3:54 AM,41.0,37.0,86,29.90,7.0,NW,6.9,-,0.10,Rain,Light Rain,310,2013-04-16 07:54:00
4:17 AM,39.2,35.6,87,29.89,10.0,WNW,4.6,-,0.02,Rain,Light Rain,290,2013-04-16 08:17:00
4:54 AM,39.0,36.0,89,29.92,10.0,West,3.5,-,0.02,,Overcast,270,2013-04-16 08:54:00
5:54 AM,39.0,34.0,82,29.94,10.0,WSW,3.5,-,N/A,,Overcast,250,2013-04-16 09:54:00
6:54 AM,37.9,33.1,83,29.96,10.0,WSW,4.6,-,N/A,,Mostly Cloudy,250,2013-04-16 10:54:00
7:54 AM,37.9,32.0,79,29.96,10.0,WSW,4.6,-,N/A,,Clear,250,2013-04-16 11:54:00
8:54 AM,41.0,32.0,70,29.98,10.0,West,8.1,-,N/A,,Clear,270,2013-04-16 12:54:00
9:54 AM,43.0,28.9,58,29.98,10.0,WNW,8.1,-,N/A,,Clear,290,2013-04-16 13:54:00
10:54 AM,44.1,28.9,55,30.02,10.0,WNW,10.4,-,N/A,,Partly Cloudy,290,2013-04-16 14:54:00
11:54 AM,46.9,28.0,48,30.04,10.0,WSW,12.7,20.7,N/A,,Scattered Clouds,250,2013-04-16 15:54:00
12:54 PM,50.0,28.9,44,30.05,10.0,WNW,15.0,21.9,N/A,,Scattered Clouds,290,2013-04-16 16:54:00
1:54 PM,50.0,28.0,43,30.06,10.0,West,9.2,20.7,N/A,,Partly Cloudy,260,2013-04-16 17:54:00
2:54 PM,50.0,26.1,39,30.09,10.0,WNW,11.5,26.5,N/A,,Partly Cloudy,300,2013-04-16 18:54:00
3:54 PM,51.1,28.0,41,30.11,10.0,NW,13.8,21.9,N/A,,Partly Cloudy,310,2013-04-16 19:54:00
4:54 PM,50.0,26.1,39,30.13,10.0,West,12.7,21.9,N/A,,Partly Cloudy,280,2013-04-16 20:54:00
5:54 PM,50.0,26.1,39,30.17,10.0,NW,13.8,18.4,N/A,,Partly Cloudy,320,2013-04-16 21:54:00
6:54 PM,48.9,27.0,43,30.20,10.0,WNW,10.4,-,N/A,,Scattered Clouds,290,2013-04-16 22:54:00
7:54 PM,42.1,30.0,62,30.24,10.0,North,13.8,-,N/A,,Mostly Cloudy,10,2013-04-16 23:54:00
8:54 PM,39.9,30.0,68,30.26,10.0,North,10.4,-,N/A,,Mostly Cloudy,360,2013-04-17 00:54:00
9:54 PM,37.9,30.0,73,30.29,10.0,North,6.9,-,N/A,,Scattered Clouds,350,2013-04-17 01:54:00
10:54 PM,36.0,30.0,79,30.31,10.0,NW,3.5,-,N/A,,Clear,320,2013-04-17 02:54:00
11:54 PM,35.1,28.9,78,30.32,10.0,NNW,8.1,-,N/A,,Clear,340,2013-04-17 03:54:00